sensor_id;sensor_type;location;lat;lon;timestamp;pressure;altitude;pressure_sealevel;temperature;humidity
73941;BME280;62294;48.554;10.202;2022-12-07T00:01:28;96069.81;;;1.01;92.74
73941;BME280;62294;48.554;10.202;2022-12-07T00:03:56;96061.31;;;1.07;93.09
73941;BME280;62294;48.554;10.202;2022-12-07T00:06:27;96061.66;;;1.12;92.65
73941;BME280;62294;48.554;10.202;2022-12-07T00:08:53;96063.78;;;1.09;92.59
73941;BME280;62294;48.554;10.202;2022-12-07T00:11:21;96058.56;;;1.09;92.56
73941;BME280;62294;48.554;10.202;2022-12-07T00:13:56;96063.97;;;1.15;92.10
73941;BME280;62294;48.554;10.202;2022-12-07T00:16:24;96068.22;;;1.24;91.92
73941;BME280;62294;48.554;10.202;2022-12-07T00:18:52;96068.22;;;1.16;91.56
73941;BME280;62294;48.554;10.202;2022-12-07T00:21:20;96066.88;;;1.12;92.25
73941;BME280;62294;48.554;10.202;2022-12-07T00:23:48;96057.06;;;1.06;92.48
73941;BME280;62294;48.554;10.202;2022-12-07T00:26:24;96065.94;;;1.21;91.78
73941;BME280;62294;48.554;10.202;2022-12-07T00:28:53;96069.88;;;1.33;91.24
73941;BME280;62294;48.554;10.202;2022-12-07T00:31:22;96063.19;;;1.39;91.08
73941;BME280;62294;48.554;10.202;2022-12-07T00:33:49;96062.03;;;1.41;91.00
73941;BME280;62294;48.554;10.202;2022-12-07T00:36:18;96057.47;;;1.43;90.69
73941;BME280;62294;48.554;10.202;2022-12-07T00:38:52;96060.88;;;1.36;90.94
73941;BME280;62294;48.554;10.202;2022-12-07T00:41:21;96060.06;;;1.35;91.32
73941;BME280;62294;48.554;10.202;2022-12-07T00:43:49;96045.31;;;1.26;90.69
73941;BME280;62294;48.554;10.202;2022-12-07T00:46:17;96057.94;;;1.23;91.64
73941;BME280;62294;48.554;10.202;2022-12-07T00:48:44;96050.25;;;1.29;90.60
73941;BME280;62294;48.554;10.202;2022-12-07T00:51:12;96040.75;;;1.36;90.58
73941;BME280;62294;48.554;10.202;2022-12-07T00:53:40;96047.31;;;1.40;90.72
73941;BME280;62294;48.554;10.202;2022-12-07T00:56:11;96064.31;;;1.44;90.79
73941;BME280;62294;48.554;10.202;2022-12-07T00:58:38;96054.50;;;1.47;90.29
73941;BME280;62294;48.554;10.202;2022-12-07T01:01:05;96049.78;;;1.50;90.32
73941;BME280;62294;48.554;10.202;2022-12-07T01:03:32;96054.81;;;1.35;90.45
73941;BME280;62294;48.554;10.202;2022-12-07T01:05:59;96055.13;;;1.24;91.53
73941;BME280;62294;48.554;10.202;2022-12-07T01:08:26;96044.19;;;1.29;91.49
73941;BME280;62294;48.554;10.202;2022-12-07T01:11:01;96039.09;;;1.35;91.38
73941;BME280;62294;48.554;10.202;2022-12-07T01:13:29;96052.53;;;1.32;91.06
73941;BME280;62294;48.554;10.202;2022-12-07T01:15:58;96061.69;;;1.28;90.67
73941;BME280;62294;48.554;10.202;2022-12-07T01:18:30;96055.13;;;1.24;91.01
73941;BME280;62294;48.554;10.202;2022-12-07T01:21:08;96054.81;;;1.27;91.48
73941;BME280;62294;48.554;10.202;2022-12-07T01:23:36;96046.13;;;1.19;91.05
73941;BME280;62294;48.554;10.202;2022-12-07T01:26:06;96053.63;;;0.98;93.56
73941;BME280;62294;48.554;10.202;2022-12-07T01:28:33;96055.91;;;0.93;93.78
73941;BME280;62294;48.554;10.202;2022-12-07T01:31:05;96051.16;;;0.96;93.98
73941;BME280;62294;48.554;10.202;2022-12-07T01:33:35;96048.72;;;1.03;92.75
73941;BME280;62294;48.554;10.202;2022-12-07T01:36:16;96053.66;;;1.22;92.69
73941;BME280;62294;48.554;10.202;2022-12-07T01:38:45;96056.00;;;1.41;91.92
73941;BME280;62294;48.554;10.202;2022-12-07T01:41:12;96057.78;;;1.49;91.62
73941;BME280;62294;48.554;10.202;2022-12-07T01:46:37;96060.22;;;1.34;92.49
73941;BME280;62294;48.554;10.202;2022-12-07T01:49:06;96069.72;;;1.27;93.19
73941;BME280;62294;48.554;10.202;2022-12-07T01:51:37;96062.34;;;1.22;92.74
73941;BME280;62294;48.554;10.202;2022-12-07T01:54:07;96061.69;;;1.28;93.01
73941;BME280;62294;48.554;10.202;2022-12-07T01:56:33;96062.03;;;1.41;92.09
73941;BME280;62294;48.554;10.202;2022-12-07T01:59:00;96056.47;;;1.44;92.10
73941;BME280;62294;48.554;10.202;2022-12-07T02:01:27;96058.75;;;1.31;91.82
73941;BME280;62294;48.554;10.202;2022-12-07T02:03:55;96053.50;;;1.23;92.90
73941;BME280;62294;48.554;10.202;2022-12-07T02:06:24;96055.16;;;1.16;92.47
73941;BME280;62294;48.554;10.202;2022-12-07T02:08:52;96057.28;;;1.21;92.90
73941;BME280;62294;48.554;10.202;2022-12-07T02:11:20;96056.09;;;1.15;92.87
73941;BME280;62294;48.554;10.202;2022-12-07T02:13:47;96054.47;;;1.14;92.16
73941;BME280;62294;48.554;10.202;2022-12-07T02:19:24;96052.66;;;1.07;93.12
73941;BME280;62294;48.554;10.202;2022-12-07T02:30:19;96045.59;;;0.99;93.66
73941;BME280;62294;48.554;10.202;2022-12-07T02:32:55;96048.38;;;0.98;93.74
73941;BME280;62294;48.554;10.202;2022-12-07T02:35:29;96047.53;;;0.89;95.17
73941;BME280;62294;48.554;10.202;2022-12-07T02:43:26;96042.03;;;1.08;94.34
73941;BME280;62294;48.554;10.202;2022-12-07T02:45:58;96038.75;;;1.14;93.22
73941;BME280;62294;48.554;10.202;2022-12-07T02:48:28;96041.38;;;1.06;94.08
73941;BME280;62294;48.554;10.202;2022-12-07T02:50:55;96039.53;;;0.99;94.29
73941;BME280;62294;48.554;10.202;2022-12-07T02:56:04;96040.03;;;0.86;95.76
73941;BME280;62294;48.554;10.202;2022-12-07T02:58:42;96042.94;;;0.83;95.63
73941;BME280;62294;48.554;10.202;2022-12-07T03:04:00;96037.50;;;1.34;93.71
73941;BME280;62294;48.554;10.202;2022-12-07T03:06:36;96030.94;;;1.38;92.67
73941;BME280;62294;48.554;10.202;2022-12-07T03:09:28;96043.06;;;1.48;91.98
73941;BME280;62294;48.554;10.202;2022-12-07T03:12:14;96038.31;;;1.59;92.04
73941;BME280;62294;48.554;10.202;2022-12-07T03:14:59;96038.47;;;1.66;91.05
73941;BME280;62294;48.554;10.202;2022-12-07T03:17:30;96037.16;;;1.62;90.86
73941;BME280;62294;48.554;10.202;2022-12-07T03:20:02;96038.31;;;1.59;91.21
73941;BME280;62294;48.554;10.202;2022-12-07T03:22:34;96042.56;;;1.68;90.49
73941;BME280;62294;48.554;10.202;2022-12-07T03:25:08;96038.13;;;1.61;90.73
73941;BME280;62294;48.554;10.202;2022-12-07T03:27:44;96044.84;;;1.63;90.97
73941;BME280;62294;48.554;10.202;2022-12-07T03:30:19;96046.34;;;1.66;90.38
73941;BME280;62294;48.554;10.202;2022-12-07T03:32:59;96042.41;;;1.46;91.34
73941;BME280;62294;48.554;10.202;2022-12-07T03:35:34;96052.38;;;1.58;91.20
73941;BME280;62294;48.554;10.202;2022-12-07T03:38:23;96044.69;;;1.73;90.67
73941;BME280;62294;48.554;10.202;2022-12-07T03:41:01;96049.91;;;1.65;91.01
73941;BME280;62294;48.554;10.202;2022-12-07T03:43:30;96045.00;;;1.70;90.51
73941;BME280;62294;48.554;10.202;2022-12-07T03:48:42;96034.38;;;1.79;90.81
73941;BME280;62294;48.554;10.202;2022-12-07T03:51:26;96037.81;;;1.72;90.96
73941;BME280;62294;48.554;10.202;2022-12-07T03:54:00;96037.66;;;1.65;90.61
73941;BME280;62294;48.554;10.202;2022-12-07T03:56:29;96033.56;;;1.63;91.05
73941;BME280;62294;48.554;10.202;2022-12-07T03:58:56;96030.94;;;1.63;90.74
73941;BME280;62294;48.554;10.202;2022-12-07T04:01:24;96039.78;;;1.62;90.69
73941;BME280;62294;48.554;10.202;2022-12-07T04:03:51;96032.56;;;1.48;90.77
73941;BME280;62294;48.554;10.202;2022-12-07T04:06:17;96024.06;;;1.37;90.94
73941;BME280;62294;48.554;10.202;2022-12-07T04:08:43;96020.13;;;1.33;91.56
73941;BME280;62294;48.554;10.202;2022-12-07T04:11:10;96023.75;;;1.40;91.20
73941;BME280;62294;48.554;10.202;2022-12-07T04:13:36;96027.31;;;1.39;91.09
73941;BME280;62294;48.554;10.202;2022-12-07T04:16:23;96025.69;;;1.30;91.39
73941;BME280;62294;48.554;10.202;2022-12-07T04:18:50;96016.34;;;1.20;91.55
73941;BME280;62294;48.554;10.202;2022-12-07T04:21:16;96022.41;;;1.28;92.19
73941;BME280;62294;48.554;10.202;2022-12-07T04:23:43;96014.69;;;1.03;92.99
73941;BME280;62294;48.554;10.202;2022-12-07T04:26:09;96016.50;;;1.10;92.71
73941;BME280;62294;48.554;10.202;2022-12-07T04:28:36;96011.59;;;1.23;91.84
73941;BME280;62294;48.554;10.202;2022-12-07T04:31:02;96024.88;;;1.22;91.96
73941;BME280;62294;48.554;10.202;2022-12-07T04:33:29;96016.16;;;0.97;91.86
73941;BME280;62294;48.554;10.202;2022-12-07T04:35:55;96018.75;;;0.81;92.42
73941;BME280;62294;48.554;10.202;2022-12-07T04:38:24;96022.63;;;0.69;93.48
73941;BME280;62294;48.554;10.202;2022-12-07T04:40:50;96022.97;;;0.66;94.88
73941;BME280;62294;48.554;10.202;2022-12-07T04:43:17;96021.31;;;0.65;94.80
73941;BME280;62294;48.554;10.202;2022-12-07T04:45:47;96023.28;;;0.71;94.16
73941;BME280;62294;48.554;10.202;2022-12-07T04:48:14;96017.09;;;0.80;94.17
73941;BME280;62294;48.554;10.202;2022-12-07T04:50:41;96020.09;;;0.93;92.91
73941;BME280;62294;48.554;10.202;2022-12-07T04:53:11;96024.66;;;0.91;93.09
73941;BME280;62294;48.554;10.202;2022-12-07T04:55:38;96020.56;;;0.97;92.47
73941;BME280;62294;48.554;10.202;2022-12-07T04:58:04;96018.63;;;1.07;92.72
73941;BME280;62294;48.554;10.202;2022-12-07T05:00:31;96020.78;;;1.11;91.50
73941;BME280;62294;48.554;10.202;2022-12-07T05:02:58;96025.38;;;1.25;90.56
73941;BME280;62294;48.554;10.202;2022-12-07T05:05:24;96026.59;;;0.89;90.53
73941;BME280;62294;48.554;10.202;2022-12-07T05:07:51;96028.03;;;0.76;90.92
73941;BME280;62294;48.554;10.202;2022-12-07T05:10:17;96024.63;;;0.83;91.82
73941;BME280;62294;48.554;10.202;2022-12-07T05:12:43;96024.28;;;0.78;91.81
73941;BME280;62294;48.554;10.202;2022-12-07T05:15:11;96028.38;;;0.81;91.69
73941;BME280;62294;48.554;10.202;2022-12-07T05:17:38;96022.13;;;0.65;92.21
73941;BME280;62294;48.554;10.202;2022-12-07T05:20:05;96018.00;;;0.55;92.61
73941;BME280;62294;48.554;10.202;2022-12-07T05:22:32;96029.75;;;0.51;92.20
73941;BME280;62294;48.554;10.202;2022-12-07T05:24:59;96016.09;;;0.65;92.03
73941;BME280;62294;48.554;10.202;2022-12-07T05:27:25;96019.75;;;0.88;91.05
73941;BME280;62294;48.554;10.202;2022-12-07T05:29:52;96012.38;;;0.92;91.33
73941;BME280;62294;48.554;10.202;2022-12-07T05:32:18;96017.31;;;1.03;90.63
73941;BME280;62294;48.554;10.202;2022-12-07T05:34:45;96016.50;;;1.02;90.36
73941;BME280;62294;48.554;10.202;2022-12-07T05:37:12;96011.94;;;1.04;90.09
73941;BME280;62294;48.554;10.202;2022-12-07T05:39:38;96003.09;;;0.97;90.03
73941;BME280;62294;48.554;10.202;2022-12-07T05:42:08;96012.72;;;0.89;90.84
73941;BME280;62294;48.554;10.202;2022-12-07T05:44:46;96010.28;;;0.95;90.81
73941;BME280;62294;48.554;10.202;2022-12-07T05:47:13;96013.50;;;0.89;90.74
73941;BME280;62294;48.554;10.202;2022-12-07T05:49:40;96015.81;;;0.92;89.65
73941;BME280;62294;48.554;10.202;2022-12-07T05:52:06;96020.09;;;1.01;89.20
73941;BME280;62294;48.554;10.202;2022-12-07T05:54:33;96014.69;;;0.95;89.78
73941;BME280;62294;48.554;10.202;2022-12-07T05:57:00;96009.94;;;0.90;89.26
73941;BME280;62294;48.554;10.202;2022-12-07T05:59:26;96007.56;;;0.63;89.23
73941;BME280;62294;48.554;10.202;2022-12-07T06:02:00;96009.34;;;0.54;90.20
73941;BME280;62294;48.554;10.202;2022-12-07T06:04:29;96017.97;;;0.39;90.25
73941;BME280;62294;48.554;10.202;2022-12-07T06:06:56;96012.69;;;0.31;90.21
73941;BME280;62294;48.554;10.202;2022-12-07T06:09:24;96005.84;;;0.38;90.87
73941;BME280;62294;48.554;10.202;2022-12-07T06:11:51;96013.09;;;0.52;90.03
73941;BME280;62294;48.554;10.202;2022-12-07T06:14:37;96013.00;;;0.69;90.04
73941;BME280;62294;48.554;10.202;2022-12-07T06:17:04;96017.22;;;0.62;89.63
73941;BME280;62294;48.554;10.202;2022-12-07T06:19:31;96004.91;;;0.55;89.87
73941;BME280;62294;48.554;10.202;2022-12-07T06:21:58;96010.78;;;0.49;89.44
73941;BME280;62294;48.554;10.202;2022-12-07T06:24:25;96003.13;;;0.47;89.71
73941;BME280;62294;48.554;10.202;2022-12-07T06:26:51;96011.44;;;0.43;90.31
73941;BME280;62294;48.554;10.202;2022-12-07T06:29:18;96017.50;;;0.51;89.27
73941;BME280;62294;48.554;10.202;2022-12-07T06:31:45;96013.69;;;0.38;89.68
73941;BME280;62294;48.554;10.202;2022-12-07T06:34:14;96005.50;;;0.33;89.28
73941;BME280;62294;48.554;10.202;2022-12-07T06:36:41;96017.13;;;0.38;90.06
73941;BME280;62294;48.554;10.202;2022-12-07T06:39:08;96012.56;;;0.40;90.09
73941;BME280;62294;48.554;10.202;2022-12-07T06:41:36;96018.63;;;0.49;89.69
73941;BME280;62294;48.554;10.202;2022-12-07T06:44:04;96022.19;;;0.40;89.92
73941;BME280;62294;48.554;10.202;2022-12-07T06:46:30;96021.25;;;0.49;89.86
73941;BME280;62294;48.554;10.202;2022-12-07T06:48:58;96018.63;;;0.49;89.86
73941;BME280;62294;48.554;10.202;2022-12-07T06:51:24;96022.09;;;0.49;89.23
73941;BME280;62294;48.554;10.202;2022-12-07T06:53:50;96021.56;;;0.46;89.33
73941;BME280;62294;48.554;10.202;2022-12-07T06:56:17;96017.25;;;0.29;89.12
73941;BME280;62294;48.554;10.202;2022-12-07T06:58:43;96009.84;;;0.16;89.41
73941;BME280;62294;48.554;10.202;2022-12-07T07:01:15;96009.16;;;0.14;90.30
73941;BME280;62294;48.554;10.202;2022-12-07T07:03:43;96004.75;;;0.07;89.83
73941;BME280;62294;48.554;10.202;2022-12-07T07:06:10;95996.44;;;0.11;90.56
73941;BME280;62294;48.554;10.202;2022-12-07T07:08:37;95994.78;;;0.10;89.15
73941;BME280;62294;48.554;10.202;2022-12-07T07:11:05;95991.47;;;0.34;86.18
73941;BME280;62294;48.554;10.202;2022-12-07T07:13:33;95995.41;;;0.38;84.58
73941;BME280;62294;48.554;10.202;2022-12-07T07:15:59;95991.97;;;0.37;85.04
73941;BME280;62294;48.554;10.202;2022-12-07T07:18:26;96002.16;;;0.56;84.74
73941;BME280;62294;48.554;10.202;2022-12-07T07:20:53;96005.59;;;0.57;82.49
73941;BME280;62294;48.554;10.202;2022-12-07T07:23:21;96009.88;;;0.66;83.15
73941;BME280;62294;48.554;10.202;2022-12-07T07:25:47;96005.19;;;0.94;83.03
73941;BME280;62294;48.554;10.202;2022-12-07T07:28:16;96026.00;;;1.19;83.85
73941;BME280;62294;48.554;10.202;2022-12-07T07:30:42;96030.28;;;1.20;83.07
73941;BME280;62294;48.554;10.202;2022-12-07T07:33:10;96021.75;;;1.10;82.57
73941;BME280;62294;48.554;10.202;2022-12-07T07:35:36;96027.97;;;1.17;82.46
73941;BME280;62294;48.554;10.202;2022-12-07T07:38:03;96022.06;;;1.23;82.23
73941;BME280;62294;48.554;10.202;2022-12-07T07:40:31;96014.91;;;1.25;82.17
73941;BME280;62294;48.554;10.202;2022-12-07T07:42:58;96022.75;;;1.41;82.12
73941;BME280;62294;48.554;10.202;2022-12-07T07:45:25;96021.78;;;1.42;82.00
73941;BME280;62294;48.554;10.202;2022-12-07T07:47:52;96026.34;;;1.49;82.51
73941;BME280;62294;48.554;10.202;2022-12-07T07:50:20;96020.31;;;1.64;81.56
73941;BME280;62294;48.554;10.202;2022-12-07T07:52:47;96026.34;;;1.65;81.75
73941;BME280;62294;48.554;10.202;2022-12-07T07:55:15;96029.44;;;1.60;82.74
73941;BME280;62294;48.554;10.202;2022-12-07T07:57:41;96039.28;;;1.66;82.07
73941;BME280;62294;48.554;10.202;2022-12-07T08:00:12;96037.47;;;1.75;81.51
73941;BME280;62294;48.554;10.202;2022-12-07T08:02:41;96043.38;;;1.69;81.13
73941;BME280;62294;48.554;10.202;2022-12-07T08:05:13;96059.41;;;1.82;81.41
73941;BME280;62294;48.554;10.202;2022-12-07T08:07:40;96050.41;;;1.92;80.43
73941;BME280;62294;48.554;10.202;2022-12-07T08:10:09;96052.38;;;1.98;79.73
73941;BME280;62294;48.554;10.202;2022-12-07T08:12:38;96054.47;;;2.11;80.36
73941;BME280;62294;48.554;10.202;2022-12-07T08:15:26;96051.03;;;2.19;79.99
73941;BME280;62294;48.554;10.202;2022-12-07T08:17:53;96055.06;;;2.37;79.75
73941;BME280;62294;48.554;10.202;2022-12-07T08:20:21;96059.50;;;2.37;77.80
73941;BME280;62294;48.554;10.202;2022-12-07T08:22:47;96060.28;;;2.45;77.82
73941;BME280;62294;48.554;10.202;2022-12-07T08:25:13;96058.34;;;2.39;78.11
73941;BME280;62294;48.554;10.202;2022-12-07T08:27:40;96056.88;;;2.29;77.58
73941;BME280;62294;48.554;10.202;2022-12-07T08:30:07;96060.97;;;2.31;76.85
73941;BME280;62294;48.554;10.202;2022-12-07T08:32:33;96069.84;;;2.22;76.26
73941;BME280;62294;48.554;10.202;2022-12-07T08:35:00;96062.63;;;2.24;77.43
73941;BME280;62294;48.554;10.202;2022-12-07T08:37:26;96063.59;;;2.39;75.57
73941;BME280;62294;48.554;10.202;2022-12-07T08:39:53;96070.25;;;2.58;75.52
73941;BME280;62294;48.554;10.202;2022-12-07T08:42:20;96068.94;;;2.54;75.62
73941;BME280;62294;48.554;10.202;2022-12-07T08:44:49;96068.09;;;2.53;75.20
73941;BME280;62294;48.554;10.202;2022-12-07T08:47:15;96070.09;;;2.51;75.28
73941;BME280;62294;48.554;10.202;2022-12-07T08:49:46;96075.84;;;2.55;75.81
73941;BME280;62294;48.554;10.202;2022-12-07T08:52:13;96071.09;;;2.50;75.93
73941;BME280;62294;48.554;10.202;2022-12-07T08:54:40;96065.16;;;2.64;75.23
73941;BME280;62294;48.554;10.202;2022-12-07T08:57:09;96066.44;;;2.68;75.06
73941;BME280;62294;48.554;10.202;2022-12-07T08:59:37;96070.03;;;2.67;75.01
73941;BME280;62294;48.554;10.202;2022-12-07T09:02:04;96074.03;;;2.55;74.57
73941;BME280;62294;48.554;10.202;2022-12-07T09:04:32;96072.19;;;2.64;75.68
73941;BME280;62294;48.554;10.202;2022-12-07T09:06:58;96069.84;;;2.77;75.44
73941;BME280;62294;48.554;10.202;2022-12-07T09:09:25;96070.41;;;2.56;75.09
73941;BME280;62294;48.554;10.202;2022-12-07T09:11:52;96069.00;;;2.76;75.25
73941;BME280;62294;48.554;10.202;2022-12-07T09:14:18;96072.97;;;2.72;74.61
73941;BME280;62294;48.554;10.202;2022-12-07T09:16:45;96071.25;;;2.96;73.55
73941;BME280;62294;48.554;10.202;2022-12-07T09:19:11;96064.00;;;2.98;73.20
73941;BME280;62294;48.554;10.202;2022-12-07T09:21:38;96064.94;;;3.05;73.49
73941;BME280;62294;48.554;10.202;2022-12-07T09:24:05;96067.53;;;2.74;73.07
73941;BME280;62294;48.554;10.202;2022-12-07T09:26:31;96067.34;;;2.83;73.06
73941;BME280;62294;48.554;10.202;2022-12-07T09:28:58;96063.66;;;3.01;72.52
73941;BME280;62294;48.554;10.202;2022-12-07T09:31:25;96057.06;;;3.05;71.70
73941;BME280;62294;48.554;10.202;2022-12-07T09:34:00;96059.69;;;3.05;71.17
73941;BME280;62294;48.554;10.202;2022-12-07T09:36:28;96055.13;;;3.29;71.13
73941;BME280;62294;48.554;10.202;2022-12-07T09:38:54;96057.88;;;3.36;70.89
73941;BME280;62294;48.554;10.202;2022-12-07T09:41:22;96055.53;;;3.41;70.96
73941;BME280;62294;48.554;10.202;2022-12-07T09:43:50;96061.50;;;3.35;70.06
73941;BME280;62294;48.554;10.202;2022-12-07T09:46:17;96060.50;;;3.36;70.17
73941;BME280;62294;48.554;10.202;2022-12-07T09:48:45;96057.22;;;3.34;69.98
73941;BME280;62294;48.554;10.202;2022-12-07T09:51:16;96053.25;;;3.38;69.45
73941;BME280;62294;48.554;10.202;2022-12-07T09:53:51;96043.69;;;3.45;68.95
73941;BME280;62294;48.554;10.202;2022-12-07T09:56:19;96040.13;;;3.38;68.45
73941;BME280;62294;48.554;10.202;2022-12-07T09:58:47;96045.13;;;3.25;68.96
73941;BME280;62294;48.554;10.202;2022-12-07T10:01:18;96035.22;;;3.35;69.21
73941;BME280;62294;48.554;10.202;2022-12-07T10:04:01;96027.56;;;3.48;68.46
73941;BME280;62294;48.554;10.202;2022-12-07T10:06:31;96035.69;;;3.38;67.59
73941;BME280;62294;48.554;10.202;2022-12-07T10:08:58;96032.91;;;3.40;67.75
73941;BME280;62294;48.554;10.202;2022-12-07T10:11:24;96031.81;;;3.26;67.91
73941;BME280;62294;48.554;10.202;2022-12-07T10:13:52;96029.69;;;3.30;69.17
73941;BME280;62294;48.554;10.202;2022-12-07T10:18:56;96023.13;;;3.71;68.31
73941;BME280;62294;48.554;10.202;2022-12-07T10:21:24;96025.63;;;3.87;67.43
73941;BME280;62294;48.554;10.202;2022-12-07T10:24:04;96025.47;;;4.03;67.11
73941;BME280;62294;48.554;10.202;2022-12-07T10:26:34;96027.16;;;3.96;66.22
73941;BME280;62294;48.554;10.202;2022-12-07T10:31:43;96015.50;;;4.28;66.74
73941;BME280;62294;48.554;10.202;2022-12-07T10:34:40;96009.63;;;4.26;66.22
73941;BME280;62294;48.554;10.202;2022-12-07T10:37:15;96010.75;;;4.09;65.97
73941;BME280;62294;48.554;10.202;2022-12-07T10:42:28;96007.50;;;3.92;66.56
73941;BME280;62294;48.554;10.202;2022-12-07T10:45:14;96003.38;;;3.75;66.88
73941;BME280;62294;48.554;10.202;2022-12-07T10:58:49;95998.25;;;3.96;65.92
73941;BME280;62294;48.554;10.202;2022-12-07T11:01:26;95988.28;;;3.92;67.65
73941;BME280;62294;48.554;10.202;2022-12-07T11:07:06;95992.34;;;4.09;67.25
73941;BME280;62294;48.554;10.202;2022-12-07T11:15:18;95983.66;;;4.23;67.15
73941;BME280;62294;48.554;10.202;2022-12-07T11:18:03;95985.13;;;4.25;66.97
73941;BME280;62294;48.554;10.202;2022-12-07T11:20:53;95970.06;;;4.05;66.20
73941;BME280;62294;48.554;10.202;2022-12-07T11:26:40;95970.84;;;4.20;65.64
73941;BME280;62294;48.554;10.202;2022-12-07T11:37:37;95967.59;;;4.32;65.80
73941;BME280;62294;48.554;10.202;2022-12-07T11:40:27;95963.00;;;4.70;65.37
73941;BME280;62294;48.554;10.202;2022-12-07T11:43:02;95952.75;;;4.75;64.28
73941;BME280;62294;48.554;10.202;2022-12-07T11:45:33;95969.31;;;4.11;64.02
73941;BME280;62294;48.554;10.202;2022-12-07T11:48:11;95958.19;;;3.94;66.44
73941;BME280;62294;48.554;10.202;2022-12-07T11:50:44;95949.19;;;4.32;65.11
73941;BME280;62294;48.554;10.202;2022-12-07T11:53:17;95950.59;;;4.64;65.07
73941;BME280;62294;48.554;10.202;2022-12-07T12:06:44;95943.47;;;4.29;65.04
73941;BME280;62294;48.554;10.202;2022-12-07T12:09:24;95940.47;;;4.47;64.90
73941;BME280;62294;48.554;10.202;2022-12-07T12:20:54;95932.78;;;4.66;63.59
73941;BME280;62294;48.554;10.202;2022-12-07T12:23:43;95927.22;;;4.40;64.25
73941;BME280;62294;48.554;10.202;2022-12-07T12:26:20;95926.44;;;4.10;65.71
73941;BME280;62294;48.554;10.202;2022-12-07T12:28:54;95929.44;;;4.22;65.67
73941;BME280;62294;48.554;10.202;2022-12-07T12:33:57;95913.09;;;4.26;64.80
73941;BME280;62294;48.554;10.202;2022-12-07T12:39:15;95914.16;;;4.47;63.71
73941;BME280;62294;48.554;10.202;2022-12-07T12:47:04;95921.44;;;4.30;64.41
73941;BME280;62294;48.554;10.202;2022-12-07T12:49:40;95924.94;;;4.52;64.45
73941;BME280;62294;48.554;10.202;2022-12-07T12:55:11;95910.63;;;4.40;64.09
73941;BME280;62294;48.554;10.202;2022-12-07T12:57:38;95904.13;;;4.57;64.59
73941;BME280;62294;48.554;10.202;2022-12-07T13:00:19;95906.69;;;4.86;64.18
73941;BME280;62294;48.554;10.202;2022-12-07T13:02:54;95904.34;;;4.97;64.08
73941;BME280;62294;48.554;10.202;2022-12-07T13:05:24;95911.13;;;5.07;62.66
73941;BME280;62294;48.554;10.202;2022-12-07T13:07:57;95908.69;;;5.26;63.63
73941;BME280;62294;48.554;10.202;2022-12-07T13:15:34;95887.50;;;4.92;62.35
73941;BME280;62294;48.554;10.202;2022-12-07T13:18:04;95888.22;;;4.29;63.31
73941;BME280;62294;48.554;10.202;2022-12-07T13:20:43;95888.72;;;4.75;64.40
73941;BME280;62294;48.554;10.202;2022-12-07T13:23:10;95885.13;;;4.97;63.46
73941;BME280;62294;48.554;10.202;2022-12-07T13:25:43;95881.47;;;4.77;63.90
73941;BME280;62294;48.554;10.202;2022-12-07T13:28:17;95886.19;;;4.81;64.36
73941;BME280;62294;48.554;10.202;2022-12-07T13:30:59;95884.59;;;4.66;64.13
73941;BME280;62294;48.554;10.202;2022-12-07T13:33:28;95885.00;;;4.63;63.85
73941;BME280;62294;48.554;10.202;2022-12-07T13:35:55;95882.03;;;4.51;63.29
73941;BME280;62294;48.554;10.202;2022-12-07T13:38:27;95877.31;;;4.68;64.35
73941;BME280;62294;48.554;10.202;2022-12-07T13:41:04;95884.66;;;4.72;64.32
73941;BME280;62294;48.554;10.202;2022-12-07T13:43:42;95878.22;;;4.75;63.49
73941;BME280;62294;48.554;10.202;2022-12-07T13:46:11;95883.09;;;4.78;63.19
73941;BME280;62294;48.554;10.202;2022-12-07T13:51:34;95881.78;;;4.31;66.28
73941;BME280;62294;48.554;10.202;2022-12-07T13:54:10;95872.25;;;4.30;65.88
73941;BME280;62294;48.554;10.202;2022-12-07T13:56:36;95877.53;;;4.30;67.02
73941;BME280;62294;48.554;10.202;2022-12-07T13:59:05;95878.13;;;4.47;66.57
73941;BME280;62294;48.554;10.202;2022-12-07T14:01:37;95875.88;;;4.44;65.95
73941;BME280;62294;48.554;10.202;2022-12-07T14:06:51;95880.16;;;4.30;65.33
73941;BME280;62294;48.554;10.202;2022-12-07T14:09:20;95869.56;;;4.24;65.71
73941;BME280;62294;48.554;10.202;2022-12-07T14:11:50;95881.97;;;4.15;66.22
73941;BME280;62294;48.554;10.202;2022-12-07T14:14:20;95869.84;;;4.14;67.29
73941;BME280;62294;48.554;10.202;2022-12-07T14:17:12;95878.72;;;4.13;67.77
73941;BME280;62294;48.554;10.202;2022-12-07T14:22:34;95880.53;;;3.84;68.02
73941;BME280;62294;48.554;10.202;2022-12-07T14:27:33;95878.91;;;3.68;69.40
73941;BME280;62294;48.554;10.202;2022-12-07T14:30:02;95874.31;;;3.55;69.96
73941;BME280;62294;48.554;10.202;2022-12-07T14:32:29;95868.84;;;3.57;69.92
73941;BME280;62294;48.554;10.202;2022-12-07T14:35:17;95868.84;;;3.57;70.85
73941;BME280;62294;48.554;10.202;2022-12-07T14:37:47;95870.66;;;3.56;70.67
73941;BME280;62294;48.554;10.202;2022-12-07T14:40:17;95871.59;;;3.49;70.71
73941;BME280;62294;48.554;10.202;2022-12-07T14:42:46;95874.56;;;3.46;70.97
73941;BME280;62294;48.554;10.202;2022-12-07T14:45:16;95867.75;;;3.37;71.96
73941;BME280;62294;48.554;10.202;2022-12-07T14:47:44;95870.56;;;3.35;72.22
73941;BME280;62294;48.554;10.202;2022-12-07T14:50:36;95869.50;;;3.22;72.99
73941;BME280;62294;48.554;10.202;2022-12-07T14:53:10;95876.84;;;3.12;73.63
73941;BME280;62294;48.554;10.202;2022-12-07T14:55:54;95874.63;;;3.23;73.42
73941;BME280;62294;48.554;10.202;2022-12-07T14:58:20;95876.22;;;3.24;73.49
73941;BME280;62294;48.554;10.202;2022-12-07T15:00:47;95881.97;;;3.28;74.00
73941;BME280;62294;48.554;10.202;2022-12-07T15:03:14;95875.31;;;3.17;74.23
73941;BME280;62294;48.554;10.202;2022-12-07T15:05:40;95878.47;;;3.13;74.51
73941;BME280;62294;48.554;10.202;2022-12-07T15:08:12;95869.94;;;3.11;74.58
73941;BME280;62294;48.554;10.202;2022-12-07T15:10:39;95880.34;;;3.04;75.52
73941;BME280;62294;48.554;10.202;2022-12-07T15:13:07;95875.09;;;3.04;75.50